Time;durP1;ratioP1;P1;durP2;ratioP2;P2;SDS_P1;SDS_P2;PMS_P1;PMS_P2;Temp;Humidity;BMP_temperature;BMP_pressure;BME280_temperature;BME280_humidity;BME280_pressure;Samples;Min_cycle;Max_cycle;Signal;HPM_P1;HPM_P2
2022/02/11 00:02:18;;;;;;;;;;;22.00;46.70;;;;;;5155176;27;19923;-45
2022/02/11 00:07:33;;;;;;;;;;;22.00;46.70;;;;;;5155722;27;19923;-44
2022/02/11 00:10:00;;;;;;;;;;;22.00;46.70;;;;;;5155379;27;19927;-44
2022/02/11 00:12:27;;;;;;;;;;;22.00;46.70;;;;;;5156058;27;20281;-44
2022/02/11 00:17:31;;;;;;;;;;;22.00;46.60;;;;;;5159274;27;19988;-45
2022/02/11 00:19:58;;;;;;;;;;;22.00;47.10;;;;;;5158279;27;20383;-45
2022/02/11 00:22:25;;;;;;;;;;;22.00;46.50;;;;;;5159283;27;19923;-45
2022/02/11 00:24:53;;;;;;;;;;;22.00;46.50;;;;;;5159423;27;19927;-45
2022/02/11 00:35:31;;;;;;;;;;;22.00;46.40;;;;;;5158064;27;19966;-44
2022/02/11 00:37:59;;;;;;;;;;;22.00;46.40;;;;;;5158889;27;19945;-43
2022/02/11 01:02:23;;;;;;;;;;;22.00;46.30;;;;;;5074398;28;19928;-43
2022/02/11 01:04:52;;;;;;;;;;;21.90;46.20;;;;;;5073803;28;19928;-47
2022/02/11 01:07:19;;;;;;;;;;;22.00;46.30;;;;;;5074320;28;20038;-43
2022/02/11 01:09:46;;;;;;;;;;;21.90;46.20;;;;;;5074229;28;20120;-47
2022/02/11 01:12:13;;;;;;;;;;;22.00;46.20;;;;;;5074037;28;20360;-45
2022/02/11 01:14:51;;;;;;;;;;;21.90;46.10;;;;;;5073240;28;20413;-46
2022/02/11 01:17:29;;;;;;;;;;;21.90;46.10;;;;;;5100981;27;20275;-48
2022/02/11 01:30:49;;;;;;;;;;;21.90;46.70;;;;;;5156814;27;20386;-45
2022/02/11 01:46:26;;;;;;;;;;;21.90;46.00;;;;;;5136985;27;19984;-43
2022/02/11 01:51:33;;;;;;;;;;;21.90;46.00;;;;;;5149307;27;19944;-43
2022/02/11 01:54:09;;;;;;;;;;;21.90;45.90;;;;;;5157441;27;20436;-43
2022/02/11 01:56:51;;;;;;;;;;;21.90;45.90;;;;;;5157856;27;20371;-45
2022/02/11 02:03:09;;;;;;;;;;;21.90;45.90;;;;;;5157610;27;19927;-44
2022/02/11 02:24:04;;;;;;;;;;;21.90;45.80;;;;;;5073023;28;19928;-44
2022/02/11 02:26:55;;;;;;;;;;;21.90;45.80;;;;;;5073636;28;19924;-44
2022/02/11 02:57:19;;;;;;;;;;;21.90;45.70;;;;;;5092520;28;20030;-45
2022/02/11 03:35:03;;;;;;;;;;;21.90;45.60;;;;;;5130711;27;19923;-51
2022/02/11 03:57:07;;;;;;;;;;;21.80;45.50;;;;;;5155414;27;19986;-49
2022/02/11 04:56:40;;;;;;;;;;;21.80;45.40;;;;;;5155442;27;19930;-45
2022/02/11 05:01:54;;;;;;;;;;;21.80;45.40;;;;;;5157698;27;19927;-44
2022/02/11 05:04:21;;;;;;;;;;;21.80;45.40;;;;;;5158349;27;19933;-43
2022/02/11 05:06:48;;;;;;;;;;;21.80;45.40;;;;;;5138775;27;19963;-45
2022/02/11 05:09:15;;;;;;;;;;;21.80;45.40;;;;;;5155351;27;19929;-45
2022/02/11 05:11:42;;;;;;;;;;;21.80;45.40;;;;;;5158103;27;20390;-46
2022/02/11 05:14:09;;;;;;;;;;;21.80;45.40;;;;;;5158206;27;19981;-44
2022/02/11 05:16:36;;;;;;;;;;;21.80;45.40;;;;;;5156960;27;19968;-42
2022/02/11 05:19:04;;;;;;;;;;;21.80;45.40;;;;;;5158038;27;20019;-46
2022/02/11 05:21:31;;;;;;;;;;;21.80;45.40;;;;;;5157844;27;19923;-45
2022/02/11 05:23:58;;;;;;;;;;;21.80;45.40;;;;;;5157218;27;19966;-44
2022/02/11 05:26:25;;;;;;;;;;;21.80;45.40;;;;;;5158252;27;19966;-45
2022/02/11 05:28:52;;;;;;;;;;;21.80;45.40;;;;;;5157874;27;19956;-45
2022/02/11 05:31:19;;;;;;;;;;;21.80;45.40;;;;;;5157062;27;19981;-44
2022/02/11 05:33:47;;;;;;;;;;;21.80;45.40;;;;;;5157823;27;19923;-43
2022/02/11 05:36:14;;;;;;;;;;;21.80;45.40;;;;;;5157624;27;19923;-44
2022/02/11 05:38:42;;;;;;;;;;;21.80;45.40;;;;;;5147169;27;19976;-47
2022/02/11 05:41:11;;;;;;;;;;;21.80;45.40;;;;;;5137228;27;19923;-45
2022/02/11 05:43:40;;;;;;;;;;;21.80;45.40;;;;;;5136712;27;19970;-45
2022/02/11 05:46:10;;;;;;;;;;;21.80;45.40;;;;;;5137783;27;19924;-47
2022/02/11 05:48:39;;;;;;;;;;;21.80;45.50;;;;;;5137039;27;19976;-44
2022/02/11 05:51:07;;;;;;;;;;;21.80;45.40;;;;;;5137035;27;19931;-45
2022/02/11 05:53:34;;;;;;;;;;;21.80;45.40;;;;;;5144397;27;19927;-46
2022/02/11 05:56:02;;;;;;;;;;;21.80;45.40;;;;;;5157616;27;20335;-45
2022/02/11 05:58:29;;;;;;;;;;;21.80;45.40;;;;;;5157647;27;20300;-45
2022/02/11 06:00:56;;;;;;;;;;;21.80;45.40;;;;;;5139224;27;19968;-45
2022/02/11 06:03:23;;;;;;;;;;;21.80;45.40;;;;;;5156156;27;19934;-48
2022/02/11 06:05:50;;;;;;;;;;;21.80;45.40;;;;;;5145552;27;20352;-43
2022/02/11 06:08:19;;;;;;;;;;;21.80;45.40;;;;;;5140274;27;19923;-45
2022/02/11 06:10:46;;;;;;;;;;;21.70;45.30;;;;;;5156211;27;19975;-45
2022/02/11 06:13:14;;;;;;;;;;;21.80;45.40;;;;;;5156917;27;20470;-45
2022/02/11 06:15:45;;;;;;;;;;;21.80;45.40;;;;;;5156904;27;19930;-47
2022/02/11 06:18:12;;;;;;;;;;;21.70;45.30;;;;;;5155610;27;19969;-47
2022/02/11 06:20:39;;;;;;;;;;;21.80;45.40;;;;;;5157747;27;19923;-44
2022/02/11 06:23:06;;;;;;;;;;;21.70;45.30;;;;;;5156205;27;19923;-48
2022/02/11 06:25:34;;;;;;;;;;;21.80;45.40;;;;;;5156672;27;19934;-46
2022/02/11 06:28:01;;;;;;;;;;;21.70;45.30;;;;;;5156999;27;19923;-47
2022/02/11 06:30:28;;;;;;;;;;;21.80;45.40;;;;;;5156935;27;20002;-44
2022/02/11 06:32:59;;;;;;;;;;;21.80;45.40;;;;;;5155525;27;19929;-46
2022/02/11 06:35:31;;;;;;;;;;;21.80;45.40;;;;;;5156801;27;19923;-49
2022/02/11 06:37:59;;;;;;;;;;;21.80;45.40;;;;;;5156575;27;19923;-47
2022/02/11 06:40:31;;;;;;;;;;;21.80;45.40;;;;;;5155736;27;19931;-46
2022/02/11 06:42:58;;;;;;;;;;;21.70;45.30;;;;;;5156590;27;19927;-44
2022/02/11 06:45:25;;;;;;;;;;;21.70;45.30;;;;;;5137992;27;20449;-47
2022/02/11 06:47:53;;;;;;;;;;;21.70;45.20;;;;;;5155302;27;20447;-47
2022/02/11 06:50:20;;;;;;;;;;;21.70;45.20;;;;;;5156567;27;19949;-45
2022/02/11 06:52:49;;;;;;;;;;;21.70;45.20;;;;;;5156270;27;19923;-46
2022/02/11 06:55:16;;;;;;;;;;;21.80;45.40;;;;;;5155561;27;19951;-46
2022/02/11 06:57:43;;;;;;;;;;;21.80;45.30;;;;;;5155877;27;19927;-49
2022/02/11 07:00:12;;;;;;;;;;;21.80;45.30;;;;;;5155807;27;19927;-46
2022/02/11 07:02:40;;;;;;;;;;;21.80;45.30;;;;;;5154995;27;20401;-43
2022/02/11 07:05:08;;;;;;;;;;;21.80;45.20;;;;;;5150799;27;19978;-44
2022/02/11 07:07:36;;;;;;;;;;;21.80;45.20;;;;;;5135250;27;19996;-43
2022/02/11 07:10:03;;;;;;;;;;;21.80;45.20;;;;;;5148589;27;19927;-46
2022/02/11 07:12:30;;;;;;;;;;;21.80;45.20;;;;;;5155655;27;19944;-45
2022/02/11 07:14:57;;;;;;;;;;;21.80;45.20;;;;;;5155706;27;20389;-45
2022/02/11 07:17:24;;;;;;;;;;;21.80;45.20;;;;;;5155605;27;19973;-46
2022/02/11 07:19:51;;;;;;;;;;;21.80;45.20;;;;;;5155502;27;19931;-45
2022/02/11 07:22:18;;;;;;;;;;;21.80;45.20;;;;;;5155809;27;20018;-50
2022/02/11 07:24:47;;;;;;;;;;;21.80;45.20;;;;;;5154843;27;19923;-47
2022/02/11 07:27:15;;;;;;;;;;;21.80;45.20;;;;;;5155816;27;20006;-48
2022/02/11 07:29:42;;;;;;;;;;;21.80;45.10;;;;;;5155760;27;19930;-48
2022/02/11 07:32:10;;;;;;;;;;;21.90;45.20;;;;;;5155791;27;19923;-47
2022/02/11 07:34:37;;;;;;;;;;;21.80;45.10;;;;;;5154321;27;19923;-43
2022/02/11 07:37:05;;;;;;;;;;;21.80;45.10;;;;;;5155370;27;19923;-48
2022/02/11 07:39:48;;;;;;;;;;;21.80;45.00;;;;;;5154744;27;19923;-47
2022/02/11 07:42:15;;;;;;;;;;;21.80;45.00;;;;;;5155470;27;19923;-46
2022/02/11 07:44:42;;;;;;;;;;;21.80;45.00;;;;;;5155629;27;19923;-45
2022/02/11 07:47:09;;;;;;;;;;;21.80;45.00;;;;;;5137847;27;19924;-48
2022/02/11 07:49:37;;;;;;;;;;;21.80;45.00;;;;;;5154432;27;20022;-47
2022/02/11 07:52:05;;;;;;;;;;;21.80;45.00;;;;;;5155067;27;19923;-47
2022/02/11 07:54:32;;;;;;;;;;;21.80;45.00;;;;;;5154399;27;19923;-46
2022/02/11 07:56:59;;;;;;;;;;;21.80;45.00;;;;;;5155109;27;20370;-49
2022/02/11 07:59:26;;;;;;;;;;;21.80;45.00;;;;;;5155489;27;19923;-45
2022/02/11 08:01:54;;;;;;;;;;;21.80;45.00;;;;;;5155399;27;19923;-47
2022/02/11 08:04:21;;;;;;;;;;;21.80;44.90;;;;;;5139401;27;19927;-48
2022/02/11 08:06:48;;;;;;;;;;;21.80;45.00;;;;;;5154270;27;19923;-46
2022/02/11 08:09:16;;;;;;;;;;;21.80;44.90;;;;;;5136054;27;19966;-49
2022/02/11 08:11:43;;;;;;;;;;;21.80;44.90;;;;;;5154927;27;19987;-45
2022/02/11 08:14:10;;;;;;;;;;;21.80;45.00;;;;;;5155011;27;19923;-45
2022/02/11 08:16:37;;;;;;;;;;;21.80;44.90;;;;;;5136583;27;19981;-46
2022/02/11 08:19:06;;;;;;;;;;;21.80;44.90;;;;;;5153839;27;20328;-51
2022/02/11 08:21:34;;;;;;;;;;;21.80;44.90;;;;;;5154736;27;19927;-47
2022/02/11 08:24:02;;;;;;;;;;;21.80;44.90;;;;;;5155258;27;20332;-48
2022/02/11 08:26:29;;;;;;;;;;;21.90;45.00;;;;;;5153915;27;19967;-46
2022/02/11 08:28:57;;;;;;;;;;;21.90;45.00;;;;;;5155056;27;19927;-45
2022/02/11 08:31:24;;;;;;;;;;;21.90;45.00;;;;;;5155110;27;20328;-44
2022/02/11 08:33:51;;;;;;;;;;;21.90;45.00;;;;;;5155486;27;19983;-44
2022/02/11 08:36:19;;;;;;;;;;;21.90;44.90;;;;;;5158707;27;19981;-50
2022/02/11 08:38:47;;;;;;;;;;;21.90;44.90;;;;;;5159118;27;19972;-44
2022/02/11 08:41:14;;;;;;;;;;;21.90;44.90;;;;;;5158315;27;19927;-42
2022/02/11 08:43:41;;;;;;;;;;;21.90;44.90;;;;;;5158985;27;19930;-46
2022/02/11 08:46:08;;;;;;;;;;;21.90;44.90;;;;;;5158699;27;19923;-49
2022/02/11 08:48:35;;;;;;;;;;;21.90;44.80;;;;;;5158007;27;19927;-46
2022/02/11 08:51:02;;;;;;;;;;;21.90;44.80;;;;;;5158902;27;19923;-47
2022/02/11 08:53:35;;;;;;;;;;;21.90;44.80;;;;;;5141089;27;19966;-48
2022/02/11 08:56:05;;;;;;;;;;;21.90;44.80;;;;;;5146810;27;19971;-46
2022/02/11 08:58:37;;;;;;;;;;;21.90;44.80;;;;;;5138175;27;20018;-49
2022/02/11 09:01:05;;;;;;;;;;;21.90;44.70;;;;;;5137944;27;19923;-49
2022/02/11 09:03:35;;;;;;;;;;;21.90;44.70;;;;;;5140151;27;19927;-50
2022/02/11 09:06:05;;;;;;;;;;;21.90;44.70;;;;;;5145285;27;20368;-45
2022/02/11 09:08:34;;;;;;;;;;;21.90;44.70;;;;;;5137691;27;19923;-47
2022/02/11 09:11:05;;;;;;;;;;;22.00;44.80;;;;;;5147169;27;19927;-46
2022/02/11 09:13:32;;;;;;;;;;;22.00;44.80;;;;;;5158348;27;19923;-47
2022/02/11 09:15:59;;;;;;;;;;;22.00;44.70;;;;;;5158141;27;19923;-44
2022/02/11 09:18:27;;;;;;;;;;;22.00;44.70;;;;;;5156871;27;19923;-46
2022/02/11 09:20:54;;;;;;;;;;;22.00;44.60;;;;;;5137146;27;20435;-47
2022/02/11 09:23:23;;;;;;;;;;;22.00;44.60;;;;;;5137381;27;19923;-46
2022/02/11 09:25:51;;;;;;;;;;;22.00;44.60;;;;;;5144161;27;19927;-45
2022/02/11 09:28:18;;;;;;;;;;;22.00;44.50;;;;;;5157912;27;20408;-45
2022/02/11 09:30:45;;;;;;;;;;;22.00;44.50;;;;;;5157917;27;19991;-45
2022/02/11 09:33:13;;;;;;;;;;;22.10;44.60;;;;;;5139762;27;19923;-49
2022/02/11 09:35:41;;;;;;;;;;;22.10;44.60;;;;;;5157132;27;19964;-46
2022/02/11 09:38:09;;;;;;;;;;;22.10;44.50;;;;;;5158022;27;19922;-49
2022/02/11 09:40:44;;;;;;;;;;;22.10;44.50;;;;;;5157164;27;19934;-45
2022/02/11 09:43:12;;;;;;;;;;;22.10;44.50;;;;;;5157893;27;19927;-50
2022/02/11 09:45:41;;;;;;;;;;;22.10;44.50;;;;;;5156271;27;20021;-46
2022/02/11 09:48:25;;;;;;;;;;;22.10;44.50;;;;;;5157679;27;19917;-44
2022/02/11 09:51:10;;;;;;;;;;;22.10;44.50;;;;;;5136754;27;20003;-47
2022/02/11 09:53:37;;;;;;;;;;;22.10;44.40;;;;;;5136931;27;20275;-44
2022/02/11 09:56:04;;;;;;;;;;;22.10;44.40;;;;;;5142600;27;19933;-46
2022/02/11 09:58:52;;;;;;;;;;;22.10;44.40;;;;;;5157588;27;19927;-44
2022/02/11 10:01:20;;;;;;;;;;;22.10;44.40;;;;;;5157549;27;19930;-44
2022/02/11 10:04:08;;;;;;;;;;;22.20;44.40;;;;;;5156361;27;19922;-45
2022/02/11 10:06:35;;;;;;;;;;;22.20;44.40;;;;;;5139205;27;19974;-46
2022/02/11 10:09:03;;;;;;;;;;;22.20;44.40;;;;;;5136343;27;19924;-44
2022/02/11 10:11:30;;;;;;;;;;;22.20;44.40;;;;;;5144498;27;19927;-45
2022/02/11 10:14:18;;;;;;;;;;;22.20;44.30;;;;;;5156958;27;19976;-48
2022/02/11 10:16:56;;;;;;;;;;;22.20;44.30;;;;;;5156700;27;19933;-47
2022/02/11 10:19:56;;;;;;;;;;;22.20;44.30;;;;;;5152451;27;20375;-48
2022/02/11 10:22:24;;;;;;;;;;;22.20;44.20;;;;;;5032965;28;20464;-48
2022/02/11 10:24:53;;;;;;;;;;;22.20;44.30;;;;;;5032960;28;19975;-44
2022/02/11 10:27:27;;;;;;;;;;;22.20;44.30;;;;;;5046233;28;19994;-47
2022/02/11 10:29:56;;;;;;;;;;;22.20;44.20;;;;;;5052738;28;19928;-46
2022/02/11 10:32:44;;;;;;;;;;;22.20;44.20;;;;;;5052856;28;19928;-48
2022/02/11 10:35:14;;;;;;;;;;;22.20;44.20;;;;;;5051821;28;19925;-46
2022/02/11 10:38:10;;;;;;;;;;;22.30;44.30;;;;;;5052527;28;19929;-50
2022/02/11 10:40:38;;;;;;;;;;;22.30;44.20;;;;;;5052589;28;19951;-48
2022/02/11 10:43:17;;;;;;;;;;;22.30;44.20;;;;;;5051370;28;19929;-46
2022/02/11 10:45:43;;;;;;;;;;;22.30;44.20;;;;;;5052646;28;20500;-46
2022/02/11 10:48:12;;;;;;;;;;;22.30;44.10;;;;;;5035913;28;20011;-48
2022/02/11 10:50:39;;;;;;;;;;;22.30;44.10;;;;;;5051574;28;19939;-49
2022/02/11 10:53:07;;;;;;;;;;;22.30;44.10;;;;;;5052109;28;20354;-49
2022/02/11 10:55:45;;;;;;;;;;;22.30;44.00;;;;;;5052228;28;20028;-45
2022/02/11 10:58:17;;;;;;;;;;;22.40;44.10;;;;;;5102123;27;19930;-53
2022/02/11 11:00:44;;;;;;;;;;;22.40;44.00;;;;;;5135372;27;20391;-51
2022/02/11 11:03:12;;;;;;;;;;;22.40;44.00;;;;;;5135342;27;20006;-53
2022/02/11 11:05:43;;;;;;;;;;;22.40;44.00;;;;;;5135285;27;20309;-54
2022/02/11 11:08:11;;;;;;;;;;;22.40;43.90;;;;;;5135231;27;19970;-51
2022/02/11 11:10:42;;;;;;;;;;;22.50;44.00;;;;;;5135234;27;19924;-54
2022/02/11 11:13:10;;;;;;;;;;;22.50;43.90;;;;;;5135256;27;20340;-54
2022/02/11 11:15:37;;;;;;;;;;;22.50;43.90;;;;;;5135403;27;19976;-47
2022/02/11 11:18:06;;;;;;;;;;;22.50;43.90;;;;;;5135082;27;20389;-51
2022/02/11 11:20:35;;;;;;;;;;;22.50;43.80;;;;;;5142547;27;19934;-48
2022/02/11 11:23:07;;;;;;;;;;;22.50;43.80;;;;;;5155465;27;20439;-45
2022/02/11 11:25:53;;;;;;;;;;;22.50;43.80;;;;;;5137665;27;20368;-46
2022/02/11 11:28:37;;;;;;;;;;;22.50;43.70;;;;;;5155228;27;19923;-48
2022/02/11 11:31:30;;;;;;;;;;;22.50;43.70;;;;;;5155556;27;19923;-49
2022/02/11 11:34:15;;;;;;;;;;;22.60;43.70;;;;;;5151165;27;19996;-45
2022/02/11 11:36:50;;;;;;;;;;;22.60;43.70;;;;;;5154487;27;19930;-47
2022/02/11 11:39:20;;;;;;;;;;;22.60;43.70;;;;;;5155750;27;20339;-47
2022/02/11 11:42:04;;;;;;;;;;;22.60;43.60;;;;;;5136174;27;19934;-48
2022/02/11 11:44:40;;;;;;;;;;;22.70;43.70;;;;;;5155334;27;19934;-50
2022/02/11 11:47:11;;;;;;;;;;;22.60;43.60;;;;;;5137241;27;19974;-48
2022/02/11 11:49:46;;;;;;;;;;;22.60;43.60;;;;;;5155674;27;20339;-49
2022/02/11 11:52:13;;;;;;;;;;;22.70;43.60;;;;;;5154343;27;19976;-47
2022/02/11 11:54:40;;;;;;;;;;;22.70;43.60;;;;;;5155262;27;20014;-49
2022/02/11 11:57:10;;;;;;;;;;;22.70;43.60;;;;;;5154398;27;19934;-49
2022/02/11 11:59:47;;;;;;;;;;;22.70;43.60;;;;;;5136831;27;19923;-45
2022/02/11 12:02:20;;;;;;;;;;;22.70;43.50;;;;;;5156012;27;19923;-43
2022/02/11 12:04:54;;;;;;;;;;;22.70;43.40;;;;;;5152543;27;19923;-44
2022/02/11 12:07:24;;;;;;;;;;;22.70;43.40;;;;;;5152974;27;19930;-45
2022/02/11 12:09:55;;;;;;;;;;;22.80;44.10;;;;;;5158794;27;20366;-45
2022/02/11 12:12:24;;;;;;;;;;;22.80;43.40;;;;;;5158554;27;20303;-49
2022/02/11 12:14:53;;;;;;;;;;;22.80;43.40;;;;;;5159378;27;20041;-45
2022/02/11 12:17:21;;;;;;;;;;;22.80;43.40;;;;;;5159164;27;20386;-45
2022/02/11 12:19:49;;;;;;;;;;;22.80;43.40;;;;;;5159119;27;20302;-43
2022/02/11 12:22:18;;;;;;;;;;;22.80;43.30;;;;;;5158484;27;19923;-46
2022/02/11 12:27:35;;;;;;;;;;;22.90;43.40;;;;;;5158707;27;19927;-45
2022/02/11 12:30:25;;;;;;;;;;;22.90;43.20;;;;;;5159400;27;19966;-46
2022/02/11 12:32:57;;;;;;;;;;;22.90;43.20;;;;;;5159376;27;19923;-44
2022/02/11 12:35:27;;;;;;;;;;;22.90;43.10;;;;;;5158987;27;20435;-47
2022/02/11 12:37:55;;;;;;;;;;;23.00;43.20;;;;;;5137843;27;20383;-46
2022/02/11 12:40:28;;;;;;;;;;;23.00;43.20;;;;;;5138131;27;20408;-46
2022/02/11 12:42:57;;;;;;;;;;;23.00;43.10;;;;;;5143877;27;19958;-44
2022/02/11 12:45:25;;;;;;;;;;;23.00;43.10;;;;;;5158781;27;20009;-48
2022/02/11 12:47:53;;;;;;;;;;;23.00;43.10;;;;;;5159062;27;19930;-47
2022/02/11 12:50:30;;;;;;;;;;;23.00;43.10;;;;;;5158697;27;19927;-44
2022/02/11 12:52:58;;;;;;;;;;;23.00;43.10;;;;;;5137719;27;19923;-48
2022/02/11 12:55:30;;;;;;;;;;;23.00;43.10;;;;;;5138227;27;19923;-45
2022/02/11 12:58:01;;;;;;;;;;;23.00;43.10;;;;;;5142745;27;19923;-46
2022/02/11 13:00:33;;;;;;;;;;;23.00;43.30;;;;;;5158884;27;19970;-45
2022/02/11 13:03:07;;;;;;;;;;;23.00;43.10;;;;;;5141849;27;19923;-47
2022/02/11 13:05:39;;;;;;;;;;;23.00;43.10;;;;;;5158731;27;19923;-45
2022/02/11 13:08:08;;;;;;;;;;;23.00;43.10;;;;;;5157673;27;20344;-46
2022/02/11 13:10:36;;;;;;;;;;;23.00;43.10;;;;;;5159084;27;19934;-45
2022/02/11 13:13:06;;;;;;;;;;;23.00;43.10;;;;;;5157693;27;19923;-44
2022/02/11 13:15:34;;;;;;;;;;;23.00;43.10;;;;;;5158256;27;19930;-48
2022/02/11 13:18:06;;;;;;;;;;;23.00;43.10;;;;;;5158184;27;19923;-45
2022/02/11 13:20:39;;;;;;;;;;;23.00;43.10;;;;;;5157875;27;19988;-48
2022/02/11 13:23:06;;;;;;;;;;;23.00;43.10;;;;;;5156848;27;19923;-44
2022/02/11 13:25:34;;;;;;;;;;;23.00;43.20;;;;;;5139698;27;19927;-47
2022/02/11 13:28:05;;;;;;;;;;;23.00;43.20;;;;;;5157215;27;19927;-47
2022/02/11 13:30:33;;;;;;;;;;;22.90;43.10;;;;;;5157898;27;19927;-46
2022/02/11 13:33:20;;;;;;;;;;;23.00;43.20;;;;;;5157792;27;19972;-47
2022/02/11 13:35:47;;;;;;;;;;;23.00;43.20;;;;;;5157779;27;19927;-46
2022/02/11 13:38:22;;;;;;;;;;;23.00;43.10;;;;;;5138861;27;19988;-49
2022/02/11 13:40:54;;;;;;;;;;;23.00;43.20;;;;;;5136989;27;20395;-45
2022/02/11 13:43:21;;;;;;;;;;;23.00;43.20;;;;;;5140516;27;19930;-46
2022/02/11 13:45:50;;;;;;;;;;;23.00;43.30;;;;;;5157583;27;20402;-45
2022/02/11 13:48:18;;;;;;;;;;;23.00;43.30;;;;;;5157729;27;19923;-48
2022/02/11 13:51:05;;;;;;;;;;;23.00;43.20;;;;;;5157548;27;20415;-47
2022/02/11 13:53:44;;;;;;;;;;;23.00;43.20;;;;;;5156576;27;19927;-47
2022/02/11 13:56:12;;;;;;;;;;;23.00;43.30;;;;;;5139371;27;19923;-48
2022/02/11 13:58:40;;;;;;;;;;;23.00;43.20;;;;;;5156467;27;19923;-46
2022/02/11 14:01:26;;;;;;;;;;;23.00;43.20;;;;;;5157471;27;19984;-48
2022/02/11 14:04:04;;;;;;;;;;;23.00;43.20;;;;;;5157246;27;19938;-52
2022/02/11 14:06:36;;;;;;;;;;;23.00;43.20;;;;;;5139896;27;19923;-47
2022/02/11 14:09:04;;;;;;;;;;;23.00;43.20;;;;;;5157184;27;19930;-47
2022/02/11 14:11:38;;;;;;;;;;;23.00;43.20;;;;;;5156998;27;19923;-46
2022/02/11 14:14:09;;;;;;;;;;;23.00;43.10;;;;;;5130694;27;19927;-48
2022/02/11 14:16:37;;;;;;;;;;;23.00;43.10;;;;;;5136300;27;19929;-50
2022/02/11 14:19:04;;;;;;;;;;;23.00;43.10;;;;;;5135988;27;19972;-50
2022/02/11 14:21:31;;;;;;;;;;;23.00;43.20;;;;;;5136253;27;20276;-48
2022/02/11 14:23:58;;;;;;;;;;;23.00;43.20;;;;;;5117620;27;19923;-50
2022/02/11 14:26:26;;;;;;;;;;;23.00;43.20;;;;;;5136379;27;19946;-51
2022/02/11 14:28:53;;;;;;;;;;;23.00;43.20;;;;;;5135753;27;19923;-50
2022/02/11 14:31:20;;;;;;;;;;;23.00;43.20;;;;;;5136148;27;19927;-50
2022/02/11 14:33:47;;;;;;;;;;;23.00;43.20;;;;;;5135976;27;19997;-53
2022/02/11 14:36:14;;;;;;;;;;;23.00;43.30;;;;;;5135937;27;20034;-49
2022/02/11 14:38:42;;;;;;;;;;;23.00;43.30;;;;;;5152254;27;20314;-51
2022/02/11 14:43:54;;;;;;;;;;;22.90;43.40;;;;;;5152633;27;19931;-49
2022/02/11 14:46:21;;;;;;;;;;;22.90;43.40;;;;;;5136057;27;19924;-49
2022/02/11 14:48:48;;;;;;;;;;;22.90;43.40;;;;;;5135637;27;19924;-50
2022/02/11 14:51:16;;;;;;;;;;;22.90;43.40;;;;;;5135400;27;19931;-50
2022/02/11 14:53:43;;;;;;;;;;;22.90;43.40;;;;;;5132344;27;19923;-50
2022/02/11 14:56:10;;;;;;;;;;;22.90;43.40;;;;;;5138121;27;19931;-45
2022/02/11 14:58:37;;;;;;;;;;;22.90;43.50;;;;;;5156147;27;20390;-46
2022/02/11 15:01:09;;;;;;;;;;;22.90;43.50;;;;;;5156227;27;19929;-45
2022/02/11 15:03:37;;;;;;;;;;;22.80;43.40;;;;;;5156080;27;19969;-47
2022/02/11 15:06:04;;;;;;;;;;;22.80;43.40;;;;;;5142614;27;19927;-48
2022/02/11 15:08:31;;;;;;;;;;;22.80;43.40;;;;;;5147116;27;20014;-50
2022/02/11 15:10:58;;;;;;;;;;;22.80;44.00;;;;;;5156259;27;19923;-44
2022/02/11 15:13:24;;;;;;;;;;;22.80;43.40;;;;;;5156144;27;19971;-47
2022/02/11 15:15:51;;;;;;;;;;;22.80;43.40;;;;;;5138344;27;19931;-44
2022/02/11 15:18:18;;;;;;;;;;;22.80;43.50;;;;;;5135268;27;19928;-47
2022/02/11 15:20:46;;;;;;;;;;;22.80;43.50;;;;;;5135006;27;19976;-51
2022/02/11 15:23:13;;;;;;;;;;;22.80;43.50;;;;;;5143053;27;19923;-45
2022/02/11 15:25:40;;;;;;;;;;;22.80;43.60;;;;;;5155670;27;19930;-46
2022/02/11 15:28:07;;;;;;;;;;;22.80;43.60;;;;;;5155957;27;19967;-46
2022/02/11 15:30:34;;;;;;;;;;;22.70;43.50;;;;;;5154652;27;19923;-52
2022/02/11 15:33:01;;;;;;;;;;;22.70;43.50;;;;;;5155492;27;19943;-50
2022/02/11 15:35:29;;;;;;;;;;;22.70;43.50;;;;;;5155814;27;19930;-47
2022/02/11 15:37:57;;;;;;;;;;;22.70;43.60;;;;;;5154658;27;19923;-49
2022/02/11 15:40:27;;;;;;;;;;;22.70;43.60;;;;;;5155436;27;19935;-47
2022/02/11 15:42:57;;;;;;;;;;;22.70;43.60;;;;;;5155259;27;19923;-45
2022/02/11 15:45:24;;;;;;;;;;;22.70;43.60;;;;;;5154579;27;20379;-49
2022/02/11 15:47:51;;;;;;;;;;;22.70;43.60;;;;;;5155315;27;19923;-49
2022/02/11 15:50:18;;;;;;;;;;;22.70;43.70;;;;;;5137233;27;19923;-49
2022/02/11 15:52:45;;;;;;;;;;;22.70;43.70;;;;;;5154275;27;20351;-48
2022/02/11 15:55:13;;;;;;;;;;;22.70;43.70;;;;;;5155205;27;19929;-45
2022/02/11 15:57:40;;;;;;;;;;;22.70;43.80;;;;;;5155211;27;20294;-50
2022/02/11 16:00:07;;;;;;;;;;;22.70;43.80;;;;;;5154653;27;20278;-48
2022/02/11 16:02:35;;;;;;;;;;;22.60;43.70;;;;;;5155169;27;19923;-43
2022/02/11 16:05:02;;;;;;;;;;;22.60;43.70;;;;;;5150527;27;20316;-46
2022/02/11 16:07:29;;;;;;;;;;;22.60;43.70;;;;;;5134718;28;19931;-52
2022/02/11 16:09:57;;;;;;;;;;;22.60;43.70;;;;;;5153314;27;19945;-50
2022/02/11 16:12:30;;;;;;;;;;;22.60;43.80;;;;;;5155307;27;20329;-44
2022/02/11 16:14:57;;;;;;;;;;;22.60;43.80;;;;;;5151463;27;19984;-46
2022/02/11 16:17:25;;;;;;;;;;;22.60;44.40;;;;;;5134277;28;19988;-43
2022/02/11 16:19:53;;;;;;;;;;;22.60;43.90;;;;;;5134082;28;19927;-44
2022/02/11 16:22:23;;;;;;;;;;;22.60;43.90;;;;;;5134083;28;19953;-45
2022/02/11 16:24:50;;;;;;;;;;;22.50;43.80;;;;;;5150643;27;19939;-46
2022/02/11 16:27:18;;;;;;;;;;;22.50;43.80;;;;;;5155261;27;19946;-48
2022/02/11 16:29:46;;;;;;;;;;;22.50;43.80;;;;;;5154362;27;19934;-47
2022/02/11 16:32:13;;;;;;;;;;;22.50;43.90;;;;;;5134286;27;19924;-44
2022/02/11 16:34:40;;;;;;;;;;;22.50;43.90;;;;;;5134996;28;19923;-44
2022/02/11 16:37:09;;;;;;;;;;;22.50;44.00;;;;;;5134107;28;19924;-44
2022/02/11 16:39:36;;;;;;;;;;;22.50;43.90;;;;;;5147028;27;19927;-46
2022/02/11 16:42:03;;;;;;;;;;;22.50;43.90;;;;;;5154632;27;19923;-47
2022/02/11 16:44:31;;;;;;;;;;;22.50;44.00;;;;;;5154785;27;19923;-50
2022/02/11 16:46:58;;;;;;;;;;;22.50;44.00;;;;;;5136065;27;20361;-44
2022/02/11 16:49:28;;;;;;;;;;;22.50;44.00;;;;;;5155002;27;19970;-44
2022/02/11 16:51:55;;;;;;;;;;;22.50;44.00;;;;;;5154548;27;19927;-47
2022/02/11 16:54:22;;;;;;;;;;;22.50;44.00;;;;;;5154628;27;20417;-49
2022/02/11 16:56:50;;;;;;;;;;;22.50;44.00;;;;;;5158573;27;20018;-46
2022/02/11 16:59:17;;;;;;;;;;;22.50;44.00;;;;;;5158724;27;19930;-49
2022/02/11 17:01:44;;;;;;;;;;;22.50;44.00;;;;;;5157685;27;19923;-47
2022/02/11 17:04:13;;;;;;;;;;;22.50;44.00;;;;;;5158688;27;19923;-48
2022/02/11 17:06:40;;;;;;;;;;;22.50;44.00;;;;;;5140095;27;19923;-45
2022/02/11 17:09:07;;;;;;;;;;;22.40;44.00;;;;;;5144085;27;19949;-43
2022/02/11 17:11:34;;;;;;;;;;;22.40;44.00;;;;;;5158479;27;19923;-46
2022/02/11 17:14:03;;;;;;;;;;;22.40;44.00;;;;;;5158853;27;19927;-45
2022/02/11 17:16:30;;;;;;;;;;;22.40;44.00;;;;;;5157725;27;19976;-43
2022/02/11 17:18:57;;;;;;;;;;;22.40;44.00;;;;;;5157836;27;19972;-44
2022/02/11 17:21:25;;;;;;;;;;;22.40;44.00;;;;;;5158196;27;19923;-47
2022/02/11 17:23:53;;;;;;;;;;;22.40;44.00;;;;;;5157309;27;19954;-45
2022/02/11 17:26:20;;;;;;;;;;;22.40;44.00;;;;;;5158258;27;19927;-44
2022/02/11 17:28:47;;;;;;;;;;;22.40;44.00;;;;;;5158238;27;19923;-45
2022/02/11 17:31:14;;;;;;;;;;;22.40;44.00;;;;;;5138776;27;20386;-45
2022/02/11 17:33:41;;;;;;;;;;;22.40;44.10;;;;;;5158162;27;19923;-44
2022/02/11 17:36:09;;;;;;;;;;;22.40;44.10;;;;;;5157776;27;19927;-44
2022/02/11 17:38:37;;;;;;;;;;;22.40;44.10;;;;;;5157176;27;19976;-45
2022/02/11 17:41:04;;;;;;;;;;;22.40;44.10;;;;;;5157384;27;19930;-45
2022/02/11 17:43:31;;;;;;;;;;;22.40;44.10;;;;;;5157930;27;19976;-47
2022/02/11 17:45:58;;;;;;;;;;;22.40;44.10;;;;;;5157124;27;20005;-49
2022/02/11 17:48:26;;;;;;;;;;;22.40;44.10;;;;;;5157629;27;19934;-49
2022/02/11 17:50:53;;;;;;;;;;;22.30;44.00;;;;;;5157888;27;20306;-47
2022/02/11 17:53:20;;;;;;;;;;;22.30;44.00;;;;;;5157634;27;19982;-50
2022/02/11 17:55:47;;;;;;;;;;;22.40;44.10;;;;;;5156250;27;19959;-51
2022/02/11 17:58:16;;;;;;;;;;;22.30;44.00;;;;;;5157411;27;19974;-51
2022/02/11 18:00:43;;;;;;;;;;;22.30;44.00;;;;;;5139228;27;19923;-51
2022/02/11 18:03:10;;;;;;;;;;;22.30;44.10;;;;;;5157259;27;19966;-50
2022/02/11 18:05:37;;;;;;;;;;;22.30;44.10;;;;;;5147360;27;20324;-49
2022/02/11 18:08:04;;;;;;;;;;;22.30;44.00;;;;;;5117844;27;19923;-45
2022/02/11 18:10:33;;;;;;;;;;;22.30;44.10;;;;;;5148836;27;20390;-49
2022/02/11 18:13:00;;;;;;;;;;;22.30;44.10;;;;;;5157253;27;19923;-46
2022/02/11 18:15:27;;;;;;;;;;;22.30;44.10;;;;;;5157024;27;19975;-46
2022/02/11 18:17:55;;;;;;;;;;;22.30;44.10;;;;;;5138966;27;19923;-46
2022/02/11 18:20:29;;;;;;;;;;;22.30;44.10;;;;;;5136227;27;19953;-48
2022/02/11 18:22:58;;;;;;;;;;;22.30;44.10;;;;;;5136270;27;19930;-49